sensor_id;sensor_type;location;lat;lon;timestamp;pressure;altitude;pressure_sealevel;temperature;humidity
18858;BME280;9558;50.178;8.370;2022-12-18T00:01:17;99410.16;;;-7.64;94.75
18858;BME280;9558;50.178;8.370;2022-12-18T00:03:44;99395.75;;;-7.56;92.74
18858;BME280;9558;50.178;8.370;2022-12-18T00:06:12;99398.91;;;-7.48;92.97
18858;BME280;9558;50.178;8.370;2022-12-18T00:08:40;99408.00;;;-7.40;93.60
18858;BME280;9558;50.178;8.370;2022-12-18T00:11:08;99398.69;;;-7.35;93.34
18858;BME280;9558;50.178;8.370;2022-12-18T00:13:35;99394.28;;;-7.25;93.71
18858;BME280;9558;50.178;8.370;2022-12-18T00:16:02;99395.78;;;-7.17;93.81
18858;BME280;9558;50.178;8.370;2022-12-18T00:18:29;99392.31;;;-7.11;94.10
18858;BME280;9558;50.178;8.370;2022-12-18T00:20:58;99380.38;;;-7.03;93.72
18858;BME280;9558;50.178;8.370;2022-12-18T00:23:26;99389.47;;;-6.97;94.53
18858;BME280;9558;50.178;8.370;2022-12-18T00:25:53;99391.03;;;-6.93;93.58
18858;BME280;9558;50.178;8.370;2022-12-18T00:28:19;99398.44;;;-6.85;93.85
18858;BME280;9558;50.178;8.370;2022-12-18T00:30:46;99394.16;;;-6.82;93.75
18858;BME280;9558;50.178;8.370;2022-12-18T00:33:16;99388.25;;;-6.81;93.82
18858;BME280;9558;50.178;8.370;2022-12-18T00:35:43;99387.41;;;-6.80;94.23
18858;BME280;9558;50.178;8.370;2022-12-18T00:38:09;99392.34;;;-6.77;94.00
18858;BME280;9558;50.178;8.370;2022-12-18T00:40:37;99382.38;;;-6.80;93.99
18858;BME280;9558;50.178;8.370;2022-12-18T00:43:04;99384.00;;;-6.77;93.88
18858;BME280;9558;50.178;8.370;2022-12-18T00:45:30;99386.47;;;-6.75;93.96
18858;BME280;9558;50.178;8.370;2022-12-18T00:47:57;99390.56;;;-6.71;93.94
18858;BME280;9558;50.178;8.370;2022-12-18T00:50:24;99395.59;;;-6.71;94.89
18858;BME280;9558;50.178;8.370;2022-12-18T00:52:51;99392.94;;;-6.65;94.04
18858;BME280;9558;50.178;8.370;2022-12-18T00:55:18;99405.44;;;-6.62;93.86
18858;BME280;9558;50.178;8.370;2022-12-18T00:57:46;99400.41;;;-6.62;95.96
18858;BME280;9558;50.178;8.370;2022-12-18T01:00:14;99402.78;;;-6.56;94.87
18858;BME280;9558;50.178;8.370;2022-12-18T01:02:41;99401.97;;;-6.56;94.63
18858;BME280;9558;50.178;8.370;2022-12-18T01:05:09;99409.34;;;-6.50;93.76
18858;BME280;9558;50.178;8.370;2022-12-18T01:07:36;99404.41;;;-6.53;94.35
18858;BME280;9558;50.178;8.370;2022-12-18T01:10:03;99393.50;;;-6.54;94.41
18858;BME280;9558;50.178;8.370;2022-12-18T01:12:30;99401.84;;;-6.52;94.90
18858;BME280;9558;50.178;8.370;2022-12-18T01:14:58;99404.31;;;-6.50;95.02
18858;BME280;9558;50.178;8.370;2022-12-18T01:17:24;99403.41;;;-6.48;95.83
18858;BME280;9558;50.178;8.370;2022-12-18T01:19:51;99411.72;;;-6.43;95.08
18858;BME280;9558;50.178;8.370;2022-12-18T01:22:17;99407.31;;;-6.36;95.20
18858;BME280;9558;50.178;8.370;2022-12-18T01:24:44;99413.97;;;-6.33;94.95
18858;BME280;9558;50.178;8.370;2022-12-18T01:27:10;99408.09;;;-6.32;95.94
18858;BME280;9558;50.178;8.370;2022-12-18T01:29:37;99418.00;;;-6.26;95.39
18858;BME280;9558;50.178;8.370;2022-12-18T01:32:05;99422.09;;;-6.22;95.11
18858;BME280;9558;50.178;8.370;2022-12-18T01:34:31;99421.28;;;-6.22;94.67
18858;BME280;9558;50.178;8.370;2022-12-18T01:37:02;99433.72;;;-6.16;94.78
18858;BME280;9558;50.178;8.370;2022-12-18T01:39:28;99430.38;;;-6.17;94.36
18858;BME280;9558;50.178;8.370;2022-12-18T01:41:55;99434.56;;;-6.16;95.00
18858;BME280;9558;50.178;8.370;2022-12-18T01:44:58;99420.94;;;-6.09;94.90
18858;BME280;9558;50.178;8.370;2022-12-18T01:47:30;99421.00;;;-6.12;94.81
18858;BME280;9558;50.178;8.370;2022-12-18T01:50:00;99424.41;;;-6.13;95.04
18858;BME280;9558;50.178;8.370;2022-12-18T01:52:29;99424.31;;;-6.10;94.90
18858;BME280;9558;50.178;8.370;2022-12-18T01:54:57;99420.94;;;-6.09;95.04
18858;BME280;9558;50.178;8.370;2022-12-18T01:57:24;99408.41;;;-6.12;95.38
18858;BME280;9558;50.178;8.370;2022-12-18T01:59:53;99411.72;;;-6.10;95.57
18858;BME280;9558;50.178;8.370;2022-12-18T02:02:22;99418.34;;;-6.05;95.56
18858;BME280;9558;50.178;8.370;2022-12-18T02:04:50;99409.13;;;-6.06;95.38
18858;BME280;9558;50.178;8.370;2022-12-18T02:07:20;99414.94;;;-6.04;95.25
18858;BME280;9558;50.178;8.370;2022-12-18T02:09:54;99415.75;;;-6.02;95.54
18858;BME280;9558;50.178;8.370;2022-12-18T02:12:28;99418.19;;;-5.99;94.88
18858;BME280;9558;50.178;8.370;2022-12-18T02:15:00;99412.41;;;-6.04;94.76
18858;BME280;9558;50.178;8.370;2022-12-18T02:17:34;99411.63;;;-6.06;94.83
18858;BME280;9558;50.178;8.370;2022-12-18T02:20:12;99407.38;;;-6.04;95.24
18858;BME280;9558;50.178;8.370;2022-12-18T02:22:49;99401.47;;;-6.03;95.11
18858;BME280;9558;50.178;8.370;2022-12-18T02:25:29;99393.91;;;-6.03;95.16
18858;BME280;9558;50.178;8.370;2022-12-18T02:28:06;99392.97;;;-5.99;95.05
18858;BME280;9558;50.178;8.370;2022-12-18T02:30:36;99390.34;;;-5.96;95.43
18858;BME280;9558;50.178;8.370;2022-12-18T02:33:05;99392.00;;;-5.95;95.55
18858;BME280;9558;50.178;8.370;2022-12-18T02:35:33;99391.25;;;-5.99;96.57
18858;BME280;9558;50.178;8.370;2022-12-18T02:38:01;99392.00;;;-5.95;95.76
18858;BME280;9558;50.178;8.370;2022-12-18T02:40:30;99391.91;;;-5.92;95.94
18858;BME280;9558;50.178;8.370;2022-12-18T02:43:06;99393.56;;;-5.91;95.71
18858;BME280;9558;50.178;8.370;2022-12-18T02:45:33;99395.16;;;-5.87;96.11
18858;BME280;9558;50.178;8.370;2022-12-18T02:48:00;99390.00;;;-5.84;95.79
18858;BME280;9558;50.178;8.370;2022-12-18T02:50:33;99383.34;;;-5.86;95.68
18858;BME280;9558;50.178;8.370;2022-12-18T02:53:09;99387.41;;;-5.81;95.73
18858;BME280;9558;50.178;8.370;2022-12-18T02:55:48;99381.50;;;-5.80;95.74
18858;BME280;9558;50.178;8.370;2022-12-18T02:58:26;99390.69;;;-5.79;97.17
18858;BME280;9558;50.178;8.370;2022-12-18T03:00:58;99407.41;;;-5.75;97.28
18858;BME280;9558;50.178;8.370;2022-12-18T03:03:30;99408.13;;;-5.69;97.20
18858;BME280;9558;50.178;8.370;2022-12-18T03:06:03;99404.66;;;-5.65;96.86
18858;BME280;9558;50.178;8.370;2022-12-18T03:08:34;99403.59;;;-5.58;96.55
18858;BME280;9558;50.178;8.370;2022-12-18T03:11:06;99406.97;;;-5.59;97.38
18858;BME280;9558;50.178;8.370;2022-12-18T03:13:38;99407.78;;;-5.57;97.42
18858;BME280;9558;50.178;8.370;2022-12-18T03:16:10;99412.84;;;-5.57;98.45
18858;BME280;9558;50.178;8.370;2022-12-18T03:18:41;99398.38;;;-5.52;98.04
18858;BME280;9558;50.178;8.370;2022-12-18T03:21:10;99410.84;;;-5.46;97.53
18858;BME280;9558;50.178;8.370;2022-12-18T03:23:40;99402.28;;;-5.42;97.30
18858;BME280;9558;50.178;8.370;2022-12-18T03:26:10;99398.81;;;-5.38;97.23
18858;BME280;9558;50.178;8.370;2022-12-18T03:28:43;99391.94;;;-5.32;97.35
18858;BME280;9558;50.178;8.370;2022-12-18T03:31:13;99386.91;;;-5.32;97.77
18858;BME280;9558;50.178;8.370;2022-12-18T03:33:43;99399.50;;;-5.32;97.48
18858;BME280;9558;50.178;8.370;2022-12-18T03:36:12;99391.94;;;-5.32;98.30
18858;BME280;9558;50.178;8.370;2022-12-18T03:38:38;99400.22;;;-5.27;97.58
18858;BME280;9558;50.178;8.370;2022-12-18T03:41:11;99386.72;;;-5.26;97.48
18858;BME280;9558;50.178;8.370;2022-12-18T03:43:49;99388.47;;;-5.28;98.62
18858;BME280;9558;50.178;8.370;2022-12-18T03:46:25;99383.31;;;-5.25;98.58
18858;BME280;9558;50.178;8.370;2022-12-18T03:48:59;99375.50;;;-5.17;98.75
18858;BME280;9558;50.178;8.370;2022-12-18T03:51:33;99385.44;;;-5.11;98.54
18858;BME280;9558;50.178;8.370;2022-12-18T03:54:03;99387.97;;;-5.11;98.41
18858;BME280;9558;50.178;8.370;2022-12-18T03:56:33;99386.22;;;-5.09;98.66
18858;BME280;9558;50.178;8.370;2022-12-18T03:59:04;99385.44;;;-5.11;98.99
18858;BME280;9558;50.178;8.370;2022-12-18T04:01:34;99398.00;;;-5.10;99.49
18858;BME280;9558;50.178;8.370;2022-12-18T04:04:03;99385.25;;;-5.05;98.86
18858;BME280;9558;50.178;8.370;2022-12-18T04:06:34;99384.34;;;-5.03;98.63
18858;BME280;9558;50.178;8.370;2022-12-18T04:09:02;99382.56;;;-5.00;98.56
18858;BME280;9558;50.178;8.370;2022-12-18T04:11:30;99371.56;;;-4.98;98.20
18858;BME280;9558;50.178;8.370;2022-12-18T04:13:57;99387.53;;;-4.97;98.08
18858;BME280;9558;50.178;8.370;2022-12-18T04:16:25;99379.88;;;-4.94;98.03
18858;BME280;9558;50.178;8.370;2022-12-18T04:18:52;99383.22;;;-4.94;98.39
18858;BME280;9558;50.178;8.370;2022-12-18T04:21:20;99378.88;;;-4.89;98.84
18858;BME280;9558;50.178;8.370;2022-12-18T04:23:46;99382.94;;;-4.84;99.06
18858;BME280;9558;50.178;8.370;2022-12-18T04:26:13;99373.66;;;-4.84;99.29
18858;BME280;9558;50.178;8.370;2022-12-18T04:28:39;99365.13;;;-4.80;99.05
18858;BME280;9558;50.178;8.370;2022-12-18T04:31:06;99378.56;;;-4.79;99.29
18858;BME280;9558;50.178;8.370;2022-12-18T04:33:34;99371.75;;;-4.76;99.28
18858;BME280;9558;50.178;8.370;2022-12-18T04:36:00;99369.97;;;-4.74;99.39
18858;BME280;9558;50.178;8.370;2022-12-18T04:38:27;99363.16;;;-4.72;99.17
18858;BME280;9558;50.178;8.370;2022-12-18T04:40:53;99363.16;;;-4.72;99.75
18858;BME280;9558;50.178;8.370;2022-12-18T04:43:20;99359.56;;;-4.64;99.56
18858;BME280;9558;50.178;8.370;2022-12-18T04:45:46;99370.47;;;-4.62;98.92
18858;BME280;9558;50.178;8.370;2022-12-18T04:48:13;99362.78;;;-4.59;98.98
18858;BME280;9558;50.178;8.370;2022-12-18T04:50:41;99364.53;;;-4.61;99.91
18858;BME280;9558;50.178;8.370;2022-12-18T04:53:07;99370.16;;;-4.53;99.07
18858;BME280;9558;50.178;8.370;2022-12-18T04:55:34;99371.03;;;-4.54;99.56
18858;BME280;9558;50.178;8.370;2022-12-18T04:58:00;99374.22;;;-4.49;99.38
18858;BME280;9558;50.178;8.370;2022-12-18T05:00:26;99373.31;;;-4.46;99.28
18858;BME280;9558;50.178;8.370;2022-12-18T05:02:53;99366.41;;;-4.41;98.97
18858;BME280;9558;50.178;8.370;2022-12-18T05:05:19;99379.00;;;-4.40;98.88
18858;BME280;9558;50.178;8.370;2022-12-18T05:07:47;99373.88;;;-4.38;98.96
18858;BME280;9558;50.178;8.370;2022-12-18T05:10:14;99375.38;;;-4.32;98.87
18858;BME280;9558;50.178;8.370;2022-12-18T05:12:40;99377.13;;;-4.35;98.83
18858;BME280;9558;50.178;8.370;2022-12-18T05:15:21;99371.88;;;-4.28;98.46
18858;BME280;9558;50.178;8.370;2022-12-18T05:17:47;99387.00;;;-4.27;98.24
18858;BME280;9558;50.178;8.370;2022-12-18T05:20:14;99381.09;;;-4.27;98.16
18858;BME280;9558;50.178;8.370;2022-12-18T05:22:40;99386.94;;;-4.25;98.20
18858;BME280;9558;50.178;8.370;2022-12-18T05:25:08;99383.56;;;-4.26;98.49
18858;BME280;9558;50.178;8.370;2022-12-18T05:27:35;99383.44;;;-4.21;97.88
18858;BME280;9558;50.178;8.370;2022-12-18T05:30:02;99384.25;;;-4.21;97.98
18858;BME280;9558;50.178;8.370;2022-12-18T05:32:30;99385.84;;;-4.18;97.83
18858;BME280;9558;50.178;8.370;2022-12-18T05:34:56;99382.59;;;-4.22;98.05
18858;BME280;9558;50.178;8.370;2022-12-18T05:37:23;99369.81;;;-4.17;97.50
18858;BME280;9558;50.178;8.370;2022-12-18T05:39:49;99370.63;;;-4.17;97.47
18858;BME280;9558;50.178;8.370;2022-12-18T05:42:17;99359.72;;;-4.17;97.04
18858;BME280;9558;50.178;8.370;2022-12-18T05:44:44;99358.69;;;-4.11;96.67
18858;BME280;9558;50.178;8.370;2022-12-18T05:47:10;99374.66;;;-4.11;96.90
18858;BME280;9558;50.178;8.370;2022-12-18T05:49:37;99370.47;;;-4.12;96.59
18858;BME280;9558;50.178;8.370;2022-12-18T05:52:03;99369.03;;;-4.19;96.67
18858;BME280;9558;50.178;8.370;2022-12-18T05:54:30;99363.09;;;-4.18;96.58
18858;BME280;9558;50.178;8.370;2022-12-18T05:56:57;99358.81;;;-4.16;96.08
18858;BME280;9558;50.178;8.370;2022-12-18T05:59:25;99369.72;;;-4.14;95.92
18858;BME280;9558;50.178;8.370;2022-12-18T06:01:51;99379.72;;;-4.11;96.16
18858;BME280;9558;50.178;8.370;2022-12-18T06:04:18;99372.88;;;-4.09;96.07
18858;BME280;9558;50.178;8.370;2022-12-18T06:06:44;99368.81;;;-4.13;95.98
18858;BME280;9558;50.178;8.370;2022-12-18T06:09:11;99371.25;;;-4.10;95.82
18858;BME280;9558;50.178;8.370;2022-12-18T06:11:38;99378.84;;;-4.10;96.01
18858;BME280;9558;50.178;8.370;2022-12-18T06:14:06;99374.75;;;-4.14;95.30
18858;BME280;9558;50.178;8.370;2022-12-18T06:16:34;99383.16;;;-4.13;95.26
18858;BME280;9558;50.178;8.370;2022-12-18T06:19:02;99395.69;;;-4.10;95.65
18858;BME280;9558;50.178;8.370;2022-12-18T06:21:29;99389.94;;;-4.14;95.30
18858;BME280;9558;50.178;8.370;2022-12-18T06:23:56;99389.94;;;-4.14;94.88
18858;BME280;9558;50.178;8.370;2022-12-18T06:26:23;99401.78;;;-4.16;95.05
18858;BME280;9558;50.178;8.370;2022-12-18T06:28:49;99395.19;;;-4.20;95.41
18858;BME280;9558;50.178;8.370;2022-12-18T06:31:16;99407.00;;;-4.21;95.35
18858;BME280;9558;50.178;8.370;2022-12-18T06:33:44;99407.88;;;-4.22;95.37
18858;BME280;9558;50.178;8.370;2022-12-18T06:36:12;99398.72;;;-4.26;95.02
18858;BME280;9558;50.178;8.370;2022-12-18T06:38:43;99401.06;;;-4.20;94.73
18858;BME280;9558;50.178;8.370;2022-12-18T06:41:11;99413.09;;;-4.26;94.79
18858;BME280;9558;50.178;8.370;2022-12-18T06:43:38;99410.56;;;-4.26;94.82
18858;BME280;9558;50.178;8.370;2022-12-18T06:46:05;99420.56;;;-4.23;94.41
18858;BME280;9558;50.178;8.370;2022-12-18T06:48:32;99418.94;;;-4.26;94.51
18858;BME280;9558;50.178;8.370;2022-12-18T06:51:00;99407.09;;;-4.24;93.91
18858;BME280;9558;50.178;8.370;2022-12-18T06:53:27;99414.75;;;-4.25;95.15
18858;BME280;9558;50.178;8.370;2022-12-18T06:55:59;99417.28;;;-4.25;94.42
18858;BME280;9558;50.178;8.370;2022-12-18T06:58:26;99419.63;;;-4.21;94.07
18858;BME280;9558;50.178;8.370;2022-12-18T07:00:53;99426.47;;;-4.23;94.51
18858;BME280;9558;50.178;8.370;2022-12-18T07:03:19;99429.84;;;-4.24;93.93
18858;BME280;9558;50.178;8.370;2022-12-18T07:05:46;99427.28;;;-4.22;94.10
18858;BME280;9558;50.178;8.370;2022-12-18T07:08:14;99442.53;;;-4.25;94.14
18858;BME280;9558;50.178;8.370;2022-12-18T07:10:41;99435.84;;;-4.26;93.45
18858;BME280;9558;50.178;8.370;2022-12-18T07:13:08;99427.47;;;-4.28;93.84
18858;BME280;9558;50.178;8.370;2022-12-18T07:15:34;99427.47;;;-4.28;93.84
18858;BME280;9558;50.178;8.370;2022-12-18T07:18:01;99436.84;;;-4.32;93.77
18858;BME280;9558;50.178;8.370;2022-12-18T07:20:27;99425.94;;;-4.32;93.68
18858;BME280;9558;50.178;8.370;2022-12-18T07:22:54;99416.75;;;-4.35;93.78
18858;BME280;9558;50.178;8.370;2022-12-18T07:25:22;99421.78;;;-4.35;94.03
18858;BME280;9558;50.178;8.370;2022-12-18T07:27:48;99408.34;;;-4.36;93.29
18858;BME280;9558;50.178;8.370;2022-12-18T07:30:15;99414.25;;;-4.37;92.87
18858;BME280;9558;50.178;8.370;2022-12-18T07:32:41;99415.94;;;-4.36;93.40
18858;BME280;9558;50.178;8.370;2022-12-18T07:35:08;99423.41;;;-4.32;93.64
18858;BME280;9558;50.178;8.370;2022-12-18T07:37:34;99420.00;;;-4.31;93.56
18858;BME280;9558;50.178;8.370;2022-12-18T07:40:01;99415.72;;;-4.29;93.29
18858;BME280;9558;50.178;8.370;2022-12-18T07:42:29;99419.94;;;-4.30;93.32
18858;BME280;9558;50.178;8.370;2022-12-18T07:44:59;99418.28;;;-4.31;93.17
18858;BME280;9558;50.178;8.370;2022-12-18T07:47:26;99418.25;;;-4.29;92.51
18858;BME280;9558;50.178;8.370;2022-12-18T07:49:52;99416.69;;;-4.34;93.22
18858;BME280;9558;50.178;8.370;2022-12-18T07:52:19;99423.25;;;-4.28;92.68
18858;BME280;9558;50.178;8.370;2022-12-18T07:54:46;99415.81;;;-4.32;92.22
18858;BME280;9558;50.178;8.370;2022-12-18T07:57:14;99408.03;;;-4.26;92.63
18858;BME280;9558;50.178;8.370;2022-12-18T07:59:42;99404.63;;;-4.25;92.22
18858;BME280;9558;50.178;8.370;2022-12-18T08:02:09;99425.44;;;-4.17;91.44
18858;BME280;9558;50.178;8.370;2022-12-18T08:04:35;99413.66;;;-4.18;91.12
18858;BME280;9558;50.178;8.370;2022-12-18T08:07:02;99420.28;;;-4.14;91.33
18858;BME280;9558;50.178;8.370;2022-12-18T08:09:29;99433.78;;;-4.15;91.50
18858;BME280;9558;50.178;8.370;2022-12-18T08:11:55;99423.56;;;-4.12;91.39
18858;BME280;9558;50.178;8.370;2022-12-18T08:14:22;99428.50;;;-4.09;91.52
18858;BME280;9558;50.178;8.370;2022-12-18T08:16:50;99426.94;;;-4.11;91.25
18858;BME280;9558;50.178;8.370;2022-12-18T08:19:16;99428.38;;;-4.04;90.63
18858;BME280;9558;50.178;8.370;2022-12-18T08:21:43;99429.13;;;-4.02;91.21
18858;BME280;9558;50.178;8.370;2022-12-18T08:24:09;99425.78;;;-4.03;90.30
18858;BME280;9558;50.178;8.370;2022-12-18T08:26:36;99426.56;;;-4.01;91.36
18858;BME280;9558;50.178;8.370;2022-12-18T08:29:03;99421.59;;;-4.04;90.02
18858;BME280;9558;50.178;8.370;2022-12-18T08:31:30;99424.81;;;-3.98;90.75
18858;BME280;9558;50.178;8.370;2022-12-18T08:33:58;99418.91;;;-3.99;90.36
18858;BME280;9558;50.178;8.370;2022-12-18T08:36:24;99419.81;;;-4.00;90.62
18858;BME280;9558;50.178;8.370;2022-12-18T08:38:51;99406.31;;;-4.01;90.47
18858;BME280;9558;50.178;8.370;2022-12-18T08:41:18;99405.28;;;-3.95;90.71
18858;BME280;9558;50.178;8.370;2022-12-18T08:43:45;99399.19;;;-3.89;90.77
18858;BME280;9558;50.178;8.370;2022-12-18T08:46:33;99393.91;;;-3.83;90.73
18858;BME280;9558;50.178;8.370;2022-12-18T08:49:02;99387.22;;;-3.84;89.68
18858;BME280;9558;50.178;8.370;2022-12-18T08:51:28;99374.53;;;-3.83;90.19
18858;BME280;9558;50.178;8.370;2022-12-18T08:53:55;99370.28;;;-3.82;89.73
18858;BME280;9558;50.178;8.370;2022-12-18T08:56:21;99377.63;;;-3.74;89.99
18858;BME280;9558;50.178;8.370;2022-12-18T08:58:51;99373.31;;;-3.72;89.30
18858;BME280;9558;50.178;8.370;2022-12-18T09:01:18;99379.75;;;-3.63;89.77
18858;BME280;9558;50.178;8.370;2022-12-18T09:03:44;99379.63;;;-3.60;88.92
18858;BME280;9558;50.178;8.370;2022-12-18T09:06:15;99376.91;;;-3.56;88.78
18858;BME280;9558;50.178;8.370;2022-12-18T09:08:42;99380.91;;;-3.49;89.70
18858;BME280;9558;50.178;8.370;2022-12-18T09:11:13;99390.84;;;-3.44;87.97
18858;BME280;9558;50.178;8.370;2022-12-18T09:13:39;99393.34;;;-3.42;87.49
18858;BME280;9558;50.178;8.370;2022-12-18T09:16:06;99413.47;;;-3.39;87.19
18858;BME280;9558;50.178;8.370;2022-12-18T09:18:33;99403.09;;;-3.33;87.01
18858;BME280;9558;50.178;8.370;2022-12-18T09:20:59;99397.16;;;-3.32;87.32
18858;BME280;9558;50.178;8.370;2022-12-18T09:23:27;99407.34;;;-3.34;86.27
18858;BME280;9558;50.178;8.370;2022-12-18T09:25:58;99408.03;;;-3.28;87.19
18858;BME280;9558;50.178;8.370;2022-12-18T09:28:25;99412.06;;;-3.24;87.05
18858;BME280;9558;50.178;8.370;2022-12-18T09:30:51;99415.31;;;-3.21;87.34
18858;BME280;9558;50.178;8.370;2022-12-18T09:33:18;99420.19;;;-3.16;87.09
18858;BME280;9558;50.178;8.370;2022-12-18T09:35:45;99420.06;;;-3.13;86.58
18858;BME280;9558;50.178;8.370;2022-12-18T09:38:13;99419.09;;;-3.09;86.63
18858;BME280;9558;50.178;8.370;2022-12-18T09:40:44;99421.41;;;-3.03;87.19
18858;BME280;9558;50.178;8.370;2022-12-18T09:43:15;99419.69;;;-3.02;85.39
18858;BME280;9558;50.178;8.370;2022-12-18T09:45:45;99417.84;;;-2.99;86.36
18858;BME280;9558;50.178;8.370;2022-12-18T09:48:15;99419.31;;;-2.93;86.66
18858;BME280;9558;50.178;8.370;2022-12-18T09:50:46;99413.56;;;-2.97;84.90
18858;BME280;9558;50.178;8.370;2022-12-18T09:53:16;99422.81;;;-2.96;85.19
18858;BME280;9558;50.178;8.370;2022-12-18T09:55:47;99418.63;;;-2.97;85.05
18858;BME280;9558;50.178;8.370;2022-12-18T09:58:17;99425.50;;;-3.00;83.80
18858;BME280;9558;50.178;8.370;2022-12-18T10:00:45;99413.25;;;-3.11;83.52
18858;BME280;9558;50.178;8.370;2022-12-18T10:03:13;99428.53;;;-3.13;83.83
18858;BME280;9558;50.178;8.370;2022-12-18T10:05:44;99435.75;;;-3.25;83.11
18858;BME280;9558;50.178;8.370;2022-12-18T10:08:17;99437.50;;;-3.27;84.28
18858;BME280;9558;50.178;8.370;2022-12-18T10:10:49;99424.19;;;-3.33;84.19
18858;BME280;9558;50.178;8.370;2022-12-18T10:13:22;99424.91;;;-3.29;84.68
18858;BME280;9558;50.178;8.370;2022-12-18T10:16:06;99414.06;;;-3.33;84.04
18858;BME280;9558;50.178;8.370;2022-12-18T10:18:49;99395.44;;;-3.32;83.97
18858;BME280;9558;50.178;8.370;2022-12-18T10:21:26;99390.38;;;-3.32;84.28
18858;BME280;9558;50.178;8.370;2022-12-18T10:23:58;99395.34;;;-3.28;84.40
18858;BME280;9558;50.178;8.370;2022-12-18T10:26:32;99397.97;;;-3.32;82.45
18858;BME280;9558;50.178;8.370;2022-12-18T10:28:59;99392.91;;;-3.32;82.79
18858;BME280;9558;50.178;8.370;2022-12-18T10:31:26;99403.94;;;-3.33;82.76
18858;BME280;9558;50.178;8.370;2022-12-18T10:33:54;99410.63;;;-3.32;83.32
18858;BME280;9558;50.178;8.370;2022-12-18T10:36:20;99419.25;;;-3.36;82.78
18858;BME280;9558;50.178;8.370;2022-12-18T10:38:47;99425.31;;;-3.40;82.01
18858;BME280;9558;50.178;8.370;2022-12-18T10:41:24;99418.63;;;-3.42;82.93
18858;BME280;9558;50.178;8.370;2022-12-18T10:44:11;99426.41;;;-3.47;81.33
18858;BME280;9558;50.178;8.370;2022-12-18T10:46:38;99425.00;;;-3.56;81.31
18858;BME280;9558;50.178;8.370;2022-12-18T10:49:05;99425.91;;;-3.57;81.45
18858;BME280;9558;50.178;8.370;2022-12-18T10:51:33;99432.88;;;-3.63;81.99
18858;BME280;9558;50.178;8.370;2022-12-18T10:54:03;99428.84;;;-3.69;81.85
18858;BME280;9558;50.178;8.370;2022-12-18T10:56:32;99430.75;;;-3.76;82.06
18858;BME280;9558;50.178;8.370;2022-12-18T10:59:03;99425.94;;;-3.82;81.75
18858;BME280;9558;50.178;8.370;2022-12-18T11:01:45;99437.03;;;-3.86;82.53
18858;BME280;9558;50.178;8.370;2022-12-18T11:04:17;99431.22;;;-3.88;82.82
18858;BME280;9558;50.178;8.370;2022-12-18T11:06:53;99417.06;;;-3.94;83.09
18858;BME280;9558;50.178;8.370;2022-12-18T11:09:21;99426.16;;;-3.88;83.04
18858;BME280;9558;50.178;8.370;2022-12-18T11:11:49;99431.22;;;-3.88;82.92
18858;BME280;9558;50.178;8.370;2022-12-18T11:14:21;99425.94;;;-3.82;82.71
18858;BME280;9558;50.178;8.370;2022-12-18T11:16:50;99413.56;;;-3.90;82.50
18858;BME280;9558;50.178;8.370;2022-12-18T11:19:26;99414.53;;;-3.94;82.37
18858;BME280;9558;50.178;8.370;2022-12-18T11:21:55;99413.03;;;-4.00;82.53
18858;BME280;9558;50.178;8.370;2022-12-18T11:24:27;99410.88;;;-4.10;82.44
18858;BME280;9558;50.178;8.370;2022-12-18T11:26:55;99418.94;;;-4.24;83.05
18858;BME280;9558;50.178;8.370;2022-12-18T11:29:27;99425.06;;;-4.31;83.46
18858;BME280;9558;50.178;8.370;2022-12-18T11:32:19;99416.94;;;-4.41;84.02
18858;BME280;9558;50.178;8.370;2022-12-18T11:34:50;99405.28;;;-4.45;84.29
18858;BME280;9558;50.178;8.370;2022-12-18T11:37:18;99406.31;;;-4.51;85.68
18858;BME280;9558;50.178;8.370;2022-12-18T11:39:49;99419.81;;;-4.52;85.48
18858;BME280;9558;50.178;8.370;2022-12-18T11:42:23;99411.75;;;-4.63;85.64
18858;BME280;9558;50.178;8.370;2022-12-18T11:44:56;99410.78;;;-4.59;85.58
18858;BME280;9558;50.178;8.370;2022-12-18T11:47:27;99408.41;;;-4.64;87.16
18858;BME280;9558;50.178;8.370;2022-12-18T11:49:55;99410.78;;;-4.59;86.45
18858;BME280;9558;50.178;8.370;2022-12-18T11:52:29;99404.00;;;-4.57;86.58
18858;BME280;9558;50.178;8.370;2022-12-18T11:55:00;99407.22;;;-4.54;87.17
18858;BME280;9558;50.178;8.370;2022-12-18T11:57:34;99416.50;;;-4.54;87.07
18858;BME280;9558;50.178;8.370;2022-12-18T12:00:09;99423.16;;;-4.52;87.37
18858;BME280;9558;50.178;8.370;2022-12-18T12:02:52;99419.91;;;-4.55;87.64
18858;BME280;9558;50.178;8.370;2022-12-18T12:05:36;99423.88;;;-4.48;87.62
18858;BME280;9558;50.178;8.370;2022-12-18T12:08:12;99414.53;;;-4.46;87.61
18858;BME280;9558;50.178;8.370;2022-12-18T12:10:52;99401.03;;;-4.45;87.22
18858;BME280;9558;50.178;8.370;2022-12-18T12:13:38;99394.16;;;-4.40;87.03
18858;BME280;9558;50.178;8.370;2022-12-18T12:16:16;99413.63;;;-4.43;86.82
18858;BME280;9558;50.178;8.370;2022-12-18T12:18:56;99404.31;;;-4.41;86.40
18858;BME280;9558;50.178;8.370;2022-12-18T12:21:35;99406.22;;;-4.48;86.51
18858;BME280;9558;50.178;8.370;2022-12-18T12:24:16;99410.63;;;-4.55;86.54
18858;BME280;9558;50.178;8.370;2022-12-18T12:26:49;99399.59;;;-4.52;86.94
18858;BME280;9558;50.178;8.370;2022-12-18T12:29:26;99403.25;;;-4.61;86.40
18858;BME280;9558;50.178;8.370;2022-12-18T12:32:05;99395.22;;;-4.74;87.88
18858;BME280;9558;50.178;8.370;2022-12-18T12:34:38;99392.75;;;-4.75;87.05
18858;BME280;9558;50.178;8.370;2022-12-18T12:37:19;99392.13;;;-4.82;87.45
18858;BME280;9558;50.178;8.370;2022-12-18T12:39:51;99383.88;;;-4.87;87.19
18858;BME280;9558;50.178;8.370;2022-12-18T12:42:29;99376.56;;;-4.96;87.78
18858;BME280;9558;50.178;8.370;2022-12-18T12:45:17;99374.03;;;-4.96;88.04
18858;BME280;9558;50.178;8.370;2022-12-18T12:47:48;99377.44;;;-4.97;88.06
18858;BME280;9558;50.178;8.370;2022-12-18T12:50:17;99380.91;;;-5.00;88.24
18858;BME280;9558;50.178;8.370;2022-12-18T12:52:46;99382.56;;;-5.00;88.60
18858;BME280;9558;50.178;8.370;2022-12-18T12:55:16;99385.06;;;-4.99;88.55
18858;BME280;9558;50.178;8.370;2022-12-18T12:57:51;99385.16;;;-5.02;89.72
18858;BME280;9558;50.178;8.370;2022-12-18T13:00:21;99391.72;;;-4.96;89.37
18858;BME280;9558;50.178;8.370;2022-12-18T13:02:55;99385.81;;;-4.95;89.02
18858;BME280;9558;50.178;8.370;2022-12-18T13:05:31;99384.84;;;-4.91;89.09
18858;BME280;9558;50.178;8.370;2022-12-18T13:08:04;99370.56;;;-4.92;89.38
18858;BME280;9558;50.178;8.370;2022-12-18T13:10:33;99364.63;;;-4.91;89.26
18858;BME280;9558;50.178;8.370;2022-12-18T13:13:02;99368.78;;;-4.89;89.35
18858;BME280;9558;50.178;8.370;2022-12-18T13:15:32;99364.53;;;-4.88;90.31
18858;BME280;9558;50.178;8.370;2022-12-18T13:18:10;99365.31;;;-4.86;89.39
18858;BME280;9558;50.178;8.370;2022-12-18T13:20:39;99358.69;;;-4.90;90.18
18858;BME280;9558;50.178;8.370;2022-12-18T13:23:29;99323.06;;;-4.81;89.06